createdAt,value
2023-01-13T00:00:50.813Z,73.24
2023-01-13T00:03:17.656Z,72.96
2023-01-13T00:05:44.454Z,73.19
2023-01-13T00:08:11.370Z,73.37
2023-01-13T00:10:38.272Z,73.08
2023-01-13T00:13:06.001Z,72.82
2023-01-13T00:15:33.424Z,72.95
2023-01-13T00:18:00.293Z,72.70
2023-01-13T00:20:27.113Z,72.76
2023-01-13T00:22:55.456Z,72.69
2023-01-13T00:25:22.683Z,72.72
2023-01-13T00:27:49.495Z,72.67
2023-01-13T00:30:16.594Z,72.65
2023-01-13T00:32:43.451Z,72.30
2023-01-13T00:35:10.401Z,72.14
2023-01-13T00:37:38.611Z,72.58
2023-01-13T00:40:06.300Z,72.59
2023-01-13T00:42:48.663Z,72.36
2023-01-13T00:45:15.871Z,72.56
2023-01-13T00:47:42.701Z,72.56
2023-01-13T00:50:10.469Z,72.52
2023-01-13T00:52:37.275Z,72.34
2023-01-13T00:55:04.508Z,72.90
2023-01-13T00:57:31.299Z,72.37
2023-01-13T00:59:58.062Z,72.39
2023-01-13T01:02:24.919Z,72.54
2023-01-13T01:04:51.875Z,73.00
2023-01-13T01:07:18.635Z,72.80
2023-01-13T01:09:45.398Z,72.59
2023-01-13T01:12:12.173Z,72.61
2023-01-13T01:14:39.005Z,72.54
2023-01-13T01:17:06.088Z,72.37
2023-01-13T01:19:32.992Z,72.47
2023-01-13T01:21:59.875Z,72.62
2023-01-13T01:24:26.655Z,72.25
2023-01-13T01:26:54.073Z,72.47
2023-01-13T01:29:20.968Z,72.69
2023-01-13T01:31:47.782Z,72.89
2023-01-13T01:34:14.601Z,72.72
2023-01-13T01:36:41.411Z,72.81
2023-01-13T01:39:08.295Z,72.51
2023-01-13T01:41:36.726Z,72.26
2023-01-13T01:44:34.099Z,72.57
2023-01-13T01:47:01.049Z,72.88
2023-01-13T01:49:34.821Z,72.84
2023-01-13T01:52:11.712Z,73.07
2023-01-13T01:54:43.778Z,72.84
2023-01-13T01:57:16.683Z,72.85
2023-01-13T01:59:44.369Z,73.23
2023-01-13T02:02:11.962Z,73.16
2023-01-13T02:04:43.057Z,73.15
2023-01-13T02:07:09.885Z,72.94
2023-01-13T02:09:36.849Z,73.03
2023-01-13T02:12:19.379Z,73.29
2023-01-13T02:14:46.948Z,73.32
2023-01-13T02:17:40.903Z,73.48
2023-01-13T02:20:24.618Z,73.69
2023-01-13T02:23:37.440Z,73.49
2023-01-13T02:26:25.225Z,74.00
2023-01-13T02:29:25.964Z,73.66
2023-01-13T02:31:59.350Z,73.87
2023-01-13T02:34:30.664Z,74.19
2023-01-13T02:37:06.931Z,74.08
2023-01-13T02:39:42.327Z,74.06
2023-01-13T02:42:30.324Z,73.93
2023-01-13T02:45:06.040Z,73.86
2023-01-13T02:47:36.954Z,73.96
2023-01-13T02:50:08.998Z,74.29
2023-01-13T02:52:43.840Z,74.41
2023-01-13T02:55:18.030Z,74.90
2023-01-13T02:57:45.512Z,75.25
2023-01-13T03:00:14.019Z,75.60
2023-01-13T03:02:40.767Z,75.70
2023-01-13T03:05:08.149Z,75.81
2023-01-13T03:07:57.677Z,75.76
2023-01-13T03:10:27.926Z,75.88
2023-01-13T03:13:25.377Z,75.82
2023-01-13T03:16:14.892Z,75.61
2023-01-13T03:18:47.154Z,75.25
2023-01-13T03:21:18.718Z,75.57
2023-01-13T03:23:50.842Z,75.01
2023-01-13T03:26:28.662Z,74.98
2023-01-13T03:29:08.117Z,74.58
2023-01-13T03:31:41.521Z,74.49
2023-01-13T03:34:16.120Z,74.46
2023-01-13T03:36:46.294Z,74.03
2023-01-13T03:39:20.355Z,73.88
2023-01-13T03:41:57.314Z,73.74
2023-01-13T03:44:32.926Z,73.69
2023-01-13T03:47:16.118Z,73.43
2023-01-13T03:49:51.934Z,73.41
2023-01-13T03:52:25.178Z,73.11
2023-01-13T03:54:59.684Z,73.01
2023-01-13T03:57:31.560Z,72.86
2023-01-13T04:00:02.254Z,72.91
2023-01-13T04:02:54.445Z,72.77
2023-01-13T04:05:21.944Z,72.68
2023-01-13T04:08:02.420Z,72.79
2023-01-13T04:10:38.599Z,72.36
2023-01-13T04:13:10.864Z,72.52
2023-01-13T04:15:40.778Z,72.68
2023-01-13T04:18:10.973Z,72.41
2023-01-13T04:20:38.484Z,72.28
2023-01-13T04:23:06.100Z,72.74
2023-01-13T04:25:33.821Z,72.82
2023-01-13T04:28:00.768Z,72.94
2023-01-13T04:30:27.568Z,73.18
2023-01-13T04:32:54.281Z,73.56
2023-01-13T04:35:21.029Z,73.87
2023-01-13T04:37:47.765Z,74.31
2023-01-13T04:40:14.810Z,74.33
2023-01-13T04:42:44.491Z,74.71
2023-01-13T04:45:12.139Z,74.80
2023-01-13T04:47:39.224Z,75.23
2023-01-13T04:50:06.172Z,75.24
2023-01-13T04:52:32.890Z,74.89
2023-01-13T04:54:59.742Z,74.84
2023-01-13T04:57:26.895Z,74.27
2023-01-13T04:59:53.582Z,74.39
2023-01-13T05:02:20.513Z,74.38
2023-01-13T05:04:48.156Z,74.07
2023-01-13T05:07:16.060Z,73.92
2023-01-13T05:09:42.821Z,73.61
2023-01-13T05:12:25.623Z,73.53
2023-01-13T05:15:08.066Z,73.34
2023-01-13T05:17:35.987Z,73.20
2023-01-13T05:20:02.941Z,73.14
2023-01-13T05:22:45.297Z,72.87
2023-01-13T05:25:27.955Z,72.72
2023-01-13T05:27:57.111Z,73.21
2023-01-13T05:30:27.939Z,72.80
2023-01-13T05:32:54.788Z,72.74
2023-01-13T05:35:21.636Z,72.39
2023-01-13T05:37:48.559Z,72.53
2023-01-13T05:40:33.689Z,72.44
2023-01-13T05:43:20.088Z,72.43
2023-01-13T05:46:03.151Z,72.37
2023-01-13T05:48:34.007Z,72.30
2023-01-13T05:51:02.274Z,72.06
2023-01-13T05:53:29.528Z,72.06
2023-01-13T05:55:56.668Z,72.28
2023-01-13T05:58:26.303Z,72.38
2023-01-13T06:00:53.367Z,72.24
2023-01-13T06:03:20.563Z,72.09
2023-01-13T06:05:48.243Z,71.96
2023-01-13T06:08:15.416Z,71.92
2023-01-13T06:10:42.159Z,71.72
2023-01-13T06:13:08.937Z,71.81
2023-01-13T06:15:36.013Z,71.88
2023-01-13T06:18:04.773Z,71.50
2023-01-13T06:20:32.126Z,71.51
2023-01-13T06:22:59.837Z,71.28
2023-01-13T06:25:57.266Z,71.06
2023-01-13T06:28:24.250Z,70.96
2023-01-13T06:30:55.319Z,70.65
2023-01-13T06:33:29.117Z,70.83
2023-01-13T06:36:01.649Z,70.58
2023-01-13T06:38:30.157Z,70.68
2023-01-13T06:40:57.102Z,70.54
2023-01-13T06:43:23.942Z,70.53
2023-01-13T06:45:54.475Z,70.16
2023-01-13T06:48:25.542Z,70.11
2023-01-13T06:50:52.319Z,69.94
2023-01-13T06:53:19.873Z,69.51
2023-01-13T06:55:46.960Z,69.72
2023-01-13T06:58:13.851Z,69.39
2023-01-13T07:00:40.768Z,69.61
2023-01-13T07:03:08.578Z,69.49
2023-01-13T07:05:35.286Z,69.34
2023-01-13T07:08:02.343Z,69.29
2023-01-13T07:10:30.311Z,69.34
2023-01-13T07:13:16.032Z,69.06
2023-01-13T07:15:42.747Z,68.94
2023-01-13T07:18:09.518Z,68.81
2023-01-13T07:20:36.235Z,68.79
2023-01-13T07:23:03.118Z,68.64
2023-01-13T07:25:30.014Z,68.66
2023-01-13T07:27:57.530Z,68.52
2023-01-13T07:30:24.241Z,68.32
2023-01-13T07:32:50.955Z,68.22
2023-01-13T07:35:21.818Z,68.74
2023-01-13T07:37:48.738Z,68.49
2023-01-13T07:40:16.996Z,68.38
2023-01-13T07:42:59.143Z,68.25
2023-01-13T07:45:29.175Z,68.49
2023-01-13T07:47:56.041Z,68.29
2023-01-13T07:50:23.975Z,68.28
2023-01-13T07:52:51.135Z,68.28
2023-01-13T07:55:17.963Z,68.42
2023-01-13T07:57:44.765Z,68.38
2023-01-13T08:00:13.029Z,68.09
2023-01-13T08:02:40.622Z,68.13
2023-01-13T08:05:08.112Z,68.22
2023-01-13T08:07:35.730Z,68.12
2023-01-13T08:10:04.093Z,67.99
2023-01-13T08:12:56.876Z,68.09
2023-01-13T08:15:24.100Z,67.79
2023-01-13T08:17:50.868Z,67.65
2023-01-13T08:20:17.793Z,67.17
2023-01-13T08:22:44.583Z,67.20
2023-01-13T08:25:11.334Z,66.62
2023-01-13T08:27:38.321Z,66.47
2023-01-13T08:30:05.928Z,66.21
2023-01-13T08:32:32.705Z,66.07
2023-01-13T08:34:59.403Z,66.12
2023-01-13T08:37:26.151Z,65.93
2023-01-13T08:39:52.857Z,65.53
2023-01-13T08:42:19.745Z,65.20
2023-01-13T08:44:46.536Z,64.89
2023-01-13T08:47:14.588Z,64.97
2023-01-13T08:49:41.386Z,64.66
2023-01-13T08:52:08.246Z,64.30
2023-01-13T08:54:35.183Z,64.49
2023-01-13T08:57:03.391Z,64.09
2023-01-13T08:59:30.336Z,63.90
2023-01-13T09:01:57.327Z,63.77
2023-01-13T09:04:27.619Z,63.55
2023-01-13T09:06:55.483Z,63.42
2023-01-13T09:09:23.940Z,63.64
2023-01-13T09:12:06.739Z,63.42
2023-01-13T09:14:36.484Z,63.34
2023-01-13T09:17:04.013Z,63.27
2023-01-13T09:19:30.817Z,62.52
2023-01-13T09:21:57.944Z,61.61
2023-01-13T09:24:25.542Z,60.76
2023-01-13T09:26:52.930Z,60.25
2023-01-13T09:29:20.585Z,59.99
2023-01-13T09:31:47.697Z,59.88
2023-01-13T09:34:32.789Z,59.82
2023-01-13T09:37:00.175Z,60.21
2023-01-13T09:39:26.958Z,60.66
2023-01-13T09:42:12.540Z,60.56
2023-01-13T09:44:58.580Z,61.01
2023-01-13T09:47:41.322Z,60.93
2023-01-13T09:50:15.530Z,61.48
2023-01-13T09:52:43.219Z,61.16
2023-01-13T09:55:14.323Z,61.38
2023-01-13T09:57:41.233Z,61.49
2023-01-13T10:00:14.220Z,61.64
2023-01-13T10:02:52.617Z,61.24
2023-01-13T10:05:36.796Z,60.73
2023-01-13T10:08:11.560Z,60.50
2023-01-13T10:10:49.061Z,60.47
2023-01-13T10:13:22.324Z,60.46
2023-01-13T10:15:57.067Z,60.66
2023-01-13T10:18:59.684Z,60.79
2023-01-13T10:21:45.292Z,60.85
2023-01-13T10:24:25.484Z,60.60
2023-01-13T10:27:05.283Z,60.24
2023-01-13T10:29:32.750Z,60.43
2023-01-13T10:32:00.478Z,59.74
2023-01-13T10:34:28.589Z,59.34
2023-01-13T10:36:59.547Z,59.28
2023-01-13T10:39:26.483Z,59.04
2023-01-13T10:42:03.032Z,58.52
2023-01-13T10:44:30.062Z,58.76
2023-01-13T10:46:59.373Z,59.02
2023-01-13T10:49:32.978Z,58.68
2023-01-13T10:52:02.106Z,58.45
2023-01-13T10:54:29.909Z,57.83
2023-01-13T10:57:13.265Z,57.96
2023-01-13T10:59:39.996Z,57.80
2023-01-13T11:02:26.274Z,57.98
2023-01-13T11:04:53.740Z,57.77
2023-01-13T11:07:23.927Z,58.12
2023-01-13T11:10:10.701Z,58.18
2023-01-13T11:13:03.716Z,58.13
2023-01-13T11:15:43.367Z,57.69
2023-01-13T11:18:19.419Z,57.12
2023-01-13T11:20:49.557Z,57.85
2023-01-13T11:23:43.473Z,57.97
2023-01-13T11:26:29.816Z,57.72
2023-01-13T11:29:32.052Z,57.31
2023-01-13T11:32:10.577Z,57.30
2023-01-13T11:34:40.487Z,58.01
2023-01-13T11:37:20.546Z,57.65
2023-01-13T11:39:48.495Z,57.54
2023-01-13T11:42:27.881Z,57.84
2023-01-13T11:45:02.031Z,57.65
2023-01-13T11:47:29.396Z,58.10
2023-01-13T11:49:56.592Z,58.21
2023-01-13T11:52:30.750Z,58.31
2023-01-13T11:55:22.669Z,58.52
2023-01-13T11:58:05.365Z,58.59
2023-01-13T12:00:51.012Z,58.85
2023-01-13T12:03:38.434Z,58.85
2023-01-13T12:06:24.999Z,58.41
2023-01-13T12:09:11.914Z,58.70
2023-01-13T12:12:01.791Z,59.24
2023-01-13T12:14:49.365Z,59.23
2023-01-13T12:17:30.292Z,58.89
2023-01-13T12:19:57.270Z,58.96
2023-01-13T12:22:30.031Z,58.78
2023-01-13T12:25:07.247Z,58.99
2023-01-13T12:27:57.629Z,59.29
2023-01-13T12:30:29.708Z,59.36
2023-01-13T12:33:03.844Z,59.26
2023-01-13T12:35:41.555Z,59.35
2023-01-13T12:38:19.460Z,59.37
2023-01-13T12:41:01.819Z,59.44
2023-01-13T12:43:45.643Z,59.40
2023-01-13T12:46:19.719Z,59.68
2023-01-13T12:48:46.459Z,59.91
2023-01-13T12:51:22.321Z,60.06
2023-01-13T12:53:49.112Z,60.54
2023-01-13T12:56:31.481Z,60.49
2023-01-13T12:59:19.380Z,60.21
2023-01-13T13:01:49.346Z,60.72
2023-01-13T13:04:20.672Z,60.73
2023-01-13T13:07:07.749Z,60.61
2023-01-13T13:09:44.642Z,60.73
2023-01-13T13:12:57.465Z,60.96
2023-01-13T13:15:27.896Z,60.98
2023-01-13T13:18:08.663Z,61.13
2023-01-13T13:20:54.295Z,60.89
2023-01-13T13:23:29.461Z,61.10
2023-01-13T13:26:03.433Z,61.18
2023-01-13T13:28:38.152Z,61.41
2023-01-13T13:31:24.834Z,61.26
2023-01-13T13:34:00.585Z,61.56
2023-01-13T13:36:30.636Z,61.72
2023-01-13T13:39:32.316Z,61.96
2023-01-13T13:42:26.916Z,61.98
2023-01-13T13:45:10.187Z,61.84
2023-01-13T13:47:38.559Z,62.01
2023-01-13T13:50:11.985Z,61.99
2023-01-13T13:52:51.521Z,62.26
2023-01-13T13:55:22.132Z,62.07
2023-01-13T13:57:51.768Z,61.87
2023-01-13T14:00:27.476Z,62.20
2023-01-13T14:02:58.952Z,62.32
2023-01-13T14:05:29.891Z,62.37
2023-01-13T14:08:19.277Z,62.92
2023-01-13T14:10:46.668Z,62.90
2023-01-13T14:13:19.978Z,63.10
2023-01-13T14:15:49.421Z,63.24
2023-01-13T14:18:19.642Z,63.19
2023-01-13T14:20:58.324Z,63.24
2023-01-13T14:23:34.772Z,63.53
2023-01-13T14:26:08.718Z,63.87
2023-01-13T14:28:40.343Z,64.20
2023-01-13T14:31:09.491Z,65.01
2023-01-13T14:33:39.288Z,65.59
2023-01-13T14:36:13.749Z,65.65
2023-01-13T14:38:41.887Z,65.42
2023-01-13T14:41:11.589Z,65.69
2023-01-13T14:43:44.372Z,66.23
2023-01-13T14:46:11.897Z,65.54
2023-01-13T14:48:41.021Z,65.62
2023-01-13T14:51:11.581Z,65.29
2023-01-13T14:53:43.330Z,65.17
2023-01-13T14:56:40.879Z,65.21
2023-01-13T14:59:38.409Z,65.18
2023-01-13T15:02:36.223Z,65.15
2023-01-13T15:05:19.703Z,65.28
2023-01-13T15:08:04.676Z,65.27
2023-01-13T15:10:35.003Z,65.04
2023-01-13T15:13:05.104Z,64.89
2023-01-13T15:15:34.995Z,64.96
2023-01-13T15:18:08.103Z,65.14
2023-01-13T15:20:34.839Z,64.97
2023-01-13T15:23:01.563Z,65.15
2023-01-13T15:25:32.922Z,65.56
2023-01-13T15:27:59.737Z,65.94
2023-01-13T15:30:27.468Z,66.40
2023-01-13T15:32:56.911Z,66.32
2023-01-13T15:35:26.855Z,66.27
2023-01-13T15:37:56.135Z,66.19
2023-01-13T15:40:29.999Z,66.15
2023-01-13T15:43:12.660Z,66.14
2023-01-13T15:45:56.045Z,66.34
2023-01-13T15:48:25.757Z,66.26
2023-01-13T15:50:52.466Z,66.52
2023-01-13T15:53:20.105Z,66.53
2023-01-13T15:55:52.292Z,66.86
2023-01-13T15:58:21.521Z,66.74
2023-01-13T16:00:48.316Z,66.44
2023-01-13T16:03:16.096Z,66.31
2023-01-13T16:05:44.606Z,66.21
2023-01-13T16:08:15.675Z,65.81
2023-01-13T16:10:43.514Z,65.72
2023-01-13T16:13:11.188Z,65.87
2023-01-13T16:15:43.421Z,66.07
2023-01-13T16:18:17.245Z,66.25
2023-01-13T16:20:44.273Z,66.47
2023-01-13T16:23:12.280Z,66.67
2023-01-13T16:25:40.562Z,66.92
2023-01-13T16:28:07.354Z,66.97
2023-01-13T16:30:37.018Z,67.06
2023-01-13T16:33:04.133Z,67.19
2023-01-13T16:35:32.352Z,67.18
2023-01-13T16:37:59.950Z,67.30
2023-01-13T16:40:31.329Z,67.43
2023-01-13T16:42:58.291Z,67.51
2023-01-13T16:45:25.231Z,67.31
2023-01-13T16:47:52.467Z,67.11
2023-01-13T16:50:23.538Z,67.27
2023-01-13T16:52:50.298Z,67.09
2023-01-13T16:55:16.994Z,67.12
2023-01-13T16:57:43.794Z,67.32
2023-01-13T17:00:12.612Z,67.39
2023-01-13T17:02:39.308Z,67.64
2023-01-13T17:05:06.894Z,68.02
2023-01-13T17:07:33.734Z,68.21
2023-01-13T17:10:00.556Z,68.59
2023-01-13T17:12:27.287Z,68.99
2023-01-13T17:14:54.015Z,69.04
2023-01-13T17:17:23.298Z,69.01
2023-01-13T17:19:50.700Z,69.43
2023-01-13T17:22:18.373Z,69.49
2023-01-13T17:25:00.838Z,69.80
2023-01-13T17:27:27.642Z,70.12
2023-01-13T17:29:54.807Z,70.51
2023-01-13T17:32:23.068Z,70.83
2023-01-13T17:34:51.012Z,71.05
2023-01-13T17:37:18.114Z,71.41
2023-01-13T17:39:46.528Z,71.61
2023-01-13T17:42:14.084Z,71.80
2023-01-13T17:44:41.172Z,71.88
2023-01-13T17:47:08.804Z,71.47
2023-01-13T17:49:35.635Z,71.08
2023-01-13T17:52:02.439Z,71.21
2023-01-13T17:54:29.251Z,71.49
2023-01-13T17:56:56.619Z,72.02
2023-01-13T17:59:24.494Z,71.87
2023-01-13T18:01:52.434Z,72.09
2023-01-13T18:04:23.596Z,72.14
2023-01-13T18:06:50.583Z,72.11
2023-01-13T18:09:17.954Z,71.81
2023-01-13T18:11:46.526Z,72.22
2023-01-13T18:14:13.970Z,72.49
2023-01-13T18:16:40.843Z,72.84
2023-01-13T18:19:23.269Z,73.01
2023-01-13T18:22:05.857Z,73.51
2023-01-13T18:24:48.409Z,74.26
2023-01-13T18:27:22.490Z,74.64
2023-01-13T18:29:51.730Z,75.31
2023-01-13T18:32:19.655Z,75.42
2023-01-13T18:34:47.939Z,75.94
2023-01-13T18:37:16.852Z,76.11
2023-01-13T18:39:44.611Z,76.28
2023-01-13T18:42:27.282Z,76.18
2023-01-13T18:44:57.025Z,76.02
2023-01-13T18:47:25.187Z,76.14
2023-01-13T18:49:52.772Z,76.62
2023-01-13T18:52:19.664Z,76.96
2023-01-13T18:54:46.418Z,76.89
2023-01-13T18:57:13.966Z,77.18
2023-01-13T18:59:57.643Z,77.57
2023-01-13T19:02:26.722Z,77.75
2023-01-13T19:04:53.976Z,78.19
2023-01-13T19:07:27.045Z,78.70
2023-01-13T19:09:55.917Z,79.11
2023-01-13T19:12:26.367Z,79.30
2023-01-13T19:14:54.765Z,79.55
2023-01-13T19:17:23.002Z,79.93
2023-01-13T19:19:52.761Z,80.23
2023-01-13T19:22:23.509Z,80.04
2023-01-13T19:24:50.664Z,80.58
2023-01-13T19:27:18.863Z,80.46
2023-01-13T19:29:52.125Z,80.65
2023-01-13T19:32:21.955Z,80.91
2023-01-13T19:34:51.247Z,81.15
2023-01-13T19:37:19.263Z,81.53
2023-01-13T19:39:46.149Z,81.62
2023-01-13T19:42:28.716Z,81.72
2023-01-13T19:45:11.281Z,82.20
2023-01-13T19:47:38.915Z,82.41
2023-01-13T19:50:08.032Z,81.99
2023-01-13T19:52:34.952Z,82.30
2023-01-13T19:55:17.655Z,82.64
2023-01-13T19:57:44.488Z,82.73
2023-01-13T20:00:26.704Z,82.77
2023-01-13T20:02:56.219Z,83.21
2023-01-13T20:05:25.880Z,82.92
2023-01-13T20:07:53.398Z,83.28
2023-01-13T20:10:22.403Z,83.45
2023-01-13T20:12:49.191Z,83.39
2023-01-13T20:15:16.331Z,83.64
2023-01-13T20:17:43.089Z,83.81
2023-01-13T20:20:10.812Z,84.16
2023-01-13T20:22:39.853Z,84.34
2023-01-13T20:25:07.708Z,84.51
2023-01-13T20:27:35.065Z,84.36
2023-01-13T20:30:02.097Z,84.52
2023-01-13T20:32:28.989Z,84.49
2023-01-13T20:35:11.932Z,84.74
2023-01-13T20:37:40.351Z,85.11
2023-01-13T20:40:08.728Z,84.67
2023-01-13T20:42:45.076Z,84.99
2023-01-13T20:45:17.814Z,84.75
2023-01-13T20:47:45.628Z,84.93
2023-01-13T20:50:13.150Z,85.03
2023-01-13T20:52:40.242Z,84.95
2023-01-13T20:55:10.327Z,84.88
2023-01-13T20:57:37.105Z,84.95
2023-01-13T21:00:05.463Z,85.15
2023-01-13T21:02:32.488Z,85.13
2023-01-13T21:04:59.303Z,84.92
2023-01-13T21:07:26.023Z,85.13
2023-01-13T21:09:52.799Z,84.69
2023-01-13T21:12:34.872Z,84.68
2023-01-13T21:15:17.827Z,84.64
2023-01-13T21:18:01.063Z,84.86
2023-01-13T21:20:30.671Z,84.71
2023-01-13T21:22:57.509Z,84.99
2023-01-13T21:25:24.623Z,84.66
2023-01-13T21:27:53.686Z,84.90
2023-01-13T21:30:20.615Z,84.67
2023-01-13T21:32:47.537Z,84.71
2023-01-13T21:35:15.190Z,84.81
2023-01-13T21:37:43.783Z,84.80
2023-01-13T21:40:15.684Z,84.79
2023-01-13T21:42:58.120Z,84.58
2023-01-13T21:45:40.364Z,85.00
2023-01-13T21:48:07.275Z,84.64
2023-01-13T21:50:34.407Z,84.48
2023-01-13T21:53:01.360Z,84.59
2023-01-13T21:55:28.837Z,84.54
2023-01-13T21:57:59.633Z,84.39
2023-01-13T22:00:29.829Z,84.51
2023-01-13T22:02:58.425Z,84.37
2023-01-13T22:05:26.238Z,84.41
2023-01-13T22:07:53.607Z,84.63
2023-01-13T22:10:22.972Z,84.37
2023-01-13T22:12:54.048Z,84.35
2023-01-13T22:15:22.312Z,84.30
2023-01-13T22:17:52.305Z,84.36
2023-01-13T22:20:20.006Z,84.53
2023-01-13T22:22:47.295Z,84.44
2023-01-13T22:25:16.655Z,84.54
2023-01-13T22:27:44.800Z,84.70
2023-01-13T22:30:15.880Z,84.60
2023-01-13T22:32:42.623Z,84.51
2023-01-13T22:35:11.547Z,84.64
2023-01-13T22:37:39.020Z,84.52
2023-01-13T22:40:07.713Z,84.54
2023-01-13T22:42:40.602Z,84.81
2023-01-13T22:45:11.196Z,84.53
2023-01-13T22:47:38.145Z,84.33
2023-01-13T22:50:05.988Z,84.19
2023-01-13T22:52:35.102Z,84.21
2023-01-13T22:55:02.018Z,84.16
2023-01-13T22:57:35.995Z,84.50
2023-01-13T23:00:10.757Z,84.19
2023-01-13T23:02:38.660Z,84.18
2023-01-13T23:05:05.997Z,84.20
2023-01-13T23:07:32.711Z,84.17
2023-01-13T23:09:59.965Z,84.15
2023-01-13T23:12:26.816Z,84.15
2023-01-13T23:14:54.691Z,84.26
2023-01-13T23:17:21.395Z,83.97
2023-01-13T23:19:48.136Z,84.07
2023-01-13T23:22:15.666Z,84.08
2023-01-13T23:24:42.358Z,83.87
2023-01-13T23:27:09.110Z,84.05
2023-01-13T23:29:35.957Z,83.89
2023-01-13T23:32:02.872Z,83.61
2023-01-13T23:34:29.628Z,83.57
2023-01-13T23:36:56.473Z,83.40
2023-01-13T23:39:24.561Z,83.52
2023-01-13T23:41:51.287Z,83.19
2023-01-13T23:44:18.086Z,83.59
2023-01-13T23:46:44.831Z,83.15
2023-01-13T23:49:11.583Z,83.13
2023-01-13T23:51:38.326Z,83.32
2023-01-13T23:54:05.265Z,83.39
2023-01-13T23:56:32.147Z,83.79
2023-01-13T23:58:59.152Z,83.58
